METAR Data
IDs: Format: Raw Decoded Include TAF

Data at: 0839 UTC 18 Nov 2018

PASN 180820Z AUTO 34016KT 4SM -RA BR FEW009 OVC018 03/03 A2942 RMK AO2 P0004 T00330028 TSNO $
PASN 180753Z AUTO 30011KT 6SM RA BR BKN010 OVC025 03/03 A2941 RMK AO2 RAB44 SLP958 P0001 T00330028 TSNO $
PASN 180653Z AUTO 28013KT 7SM BKN013 OVC021 03/02 A2940 RMK RAB11E21B22E23B35E45UPB23E35 SLP956 P0000 T00280022 TSNO $ VIA AUTODIAL
PASN 180651Z AUTO 28014G22KT 7SM BKN014 OVC021 03/02 A2940 RMK RAB11E21B22E23B35E45UPB23E35 P0000 TSNO $ VIA AUTODIAL
PASN 180631Z AUTO 28015KT 4SM UP BR FEW010 BKN016 OVC024 03/02 A2940 RMK AO2 RAB11E21B22E23UPB23 P0000 T00280022 TSNO $
PASN 180553Z AUTO 29014KT 9SM BKN018 BKN023 OVC065 02/02 A2939 RMK AO2 RAB36E45 SLP954 P0000 60001 T00220017 10033 20017 51005 TSNO $
PASN 180453Z AUTO 28015KT 10SM SCT017 BKN021 BKN026 02/01 A2939 RMK AO2 RAE47 SLP953 P0000 T00220011 TSNO $
PASN 180353Z AUTO 28014KT 9SM -RA SCT014 BKN022 02/01 A2939 RMK AO2 RAE25B46 SLP952 P0001 T00220011 TSNO $
PASN 180253Z AUTO 28014G21KT 5SM -RA BR FEW011 SCT017 BKN024 02/01 A2938 RMK AO2 RAE07B36 SLP949 P0000 60000 T00220011 53004 TSNO $
PASN 180153Z AUTO 29014KT 6SM -RA BR SCT016 BKN022 BKN029 02/02 A2937 RMK AO2 RAB02UPB52E53 SLP947 P0000 T00220017 TSNO $
PASN 180053Z AUTO 30013KT 9SM BKN015 BKN024 03/02 A2937 RMK AO2 SLP946 T00280017 TSNO $
PASN 172353Z AUTO 29014KT 10SM BKN015 04/02 A2937 RMK AO2 SLP945 T00390022 10039 20022 51004 TSNO $
PASN 172304Z AUTO 28014KT 10SM FEW008 BKN014 03/02 A2936 RMK AO2 T00280022 TSNO $
PASN 172253Z AUTO 29013KT 8SM BKN014 BKN019 03/02 A2936 RMK AO2 SLP943 T00330022 TSNO $
PASN 172227Z AUTO 28011KT 6SM BR BKN014 BKN020 03/02 A2936 RMK AO2 T00280022 TSNO $
PASN 172223Z AUTO 28013KT 8SM SCT014 SCT020 03/02 A2936 RMK AO2 T00280017 TSNO $
PASN 172153Z AUTO 28011KT 10SM OVC014 03/02 A2936 RMK SLP943 T00330022 TSNO $ VIA AUTODIAL
PASN 172053Z AUTO 29011KT 10SM OVC012 03/02 A2935 RMK SLP940 T00280017 51013 TSNO $ VIA AUTODIAL
PASN 171953Z AUTO 30008KT 10SM OVC010 03/02 A2934 RMK AO2 SLP937 T00280022 TSNO $
PASN 171853Z AUTO 29009KT 10SM OVC013 03/03 A2933 RMK AO2 SLP932 T00280028 TSNO $
PASN 171804Z AUTO 32008KT 10SM FEW007 OVC012 03/03 A2932 RMK AO2 T00330033 TSNO $
PASN 171753Z AUTO 32008KT 7SM BKN009 OVC012 03/03 A2931 RMK AO2 UPB25E38RAB38E51 SLP927 P0001 60001 T00330033 10044 20022 53009 TSNO $
PASN 171653Z AUTO 00000KT 10SM OVC003 02/02 A2930 RMK AO2 SLP924 T00220022 TSNO $
PASN 171618Z AUTO 30005KT 6SM BR OVC004 02/02 A2930 RMK AO2 T00220022 TSNO $
PASN 171553Z AUTO 30007KT 10SM OVC006 03/02 A2930 RMK CIG 004V008 SLP921 T00280022 TSNO $ VIA AUTODIAL
PASN 171453Z AUTO 23008KT 10SM OVC008 03/03 A2929 RMK AO2 SLP919 60000 T00280028 56001 TSNO $
PASN 171353Z AUTO 25007KT 10SM OVC006 03/03 A2929 RMK SLP919 T00330033 TSNO $ VIA AUTODIAL
PASN 171312Z AUTO 26005KT 8SM BKN007 OVC012 03/03 A2929 RMK AO2 T00280028 TSNO $
PASN 171303Z AUTO 25005KT 2SM BR BKN005 OVC012 03/03 A2929 RMK AO2 T00280028 TSNO $
PASN 171253Z AUTO 24006KT 1SM BR FEW005 BKN012 OVC030 03/03 A2929 RMK AO2 RAB08E18B31E41 SLP918 P0000 T00280028 TSNO $
PASN 171249Z AUTO 25004KT 1SM BR FEW007 BKN012 OVC037 03/03 A2929 RMK AO2 RAB08E18B31E41 P0000 TSNO $
PASN 171243Z AUTO 26004KT 1SM BR BKN014 BKN028 BKN037 03/03 A2929 RMK AO2 RAB08E18B31E41 P0000 T00330033 TSNO $
PASN 171230Z AUTO 26003KT 1 1/2SM BR FEW012 BKN023 BKN028 04/04 A2929 RMK AO2 RAB08E18 P0000 T00390039 TSNO $
PASN 171225Z AUTO 00000KT 7SM FEW005 BKN016 BKN027 04/04 A2929 RMK AO2 RAB08E18 P0000 T00440044 TSNO $
PASN 171216Z AUTO 00000KT 3SM -RA BR BKN005 BKN010 OVC014 04/04 A2929 RMK AO2 RAB08 P0000 T00440044 TSNO $
PASN 171153Z AUTO 19004KT 7SM OVC005 04/04 A2929 RMK AO2 SLP920 60000 70006 T00440044 10044 20033 56004 TSNO $
PASN 171053Z AUTO 16005KT 9SM BKN006 OVC011 04/04 A2929 RMK AO2 SLP920 T00440044 TSNO $
PASN 170953Z AUTO 14005KT 9SM BKN005 BKN009 OVC017 04/04 A2930 RMK AO2 RAB14E25 SLP922 P0000 T00440044 TSNO $
PASN 170916Z AUTO 17005KT 4SM -RA BR BKN007 OVC014 04/04 A2930 RMK AO2 RAB14 P0000 T00440044 TSNO $
PASN 170853Z AUTO 17004KT 10SM BKN007 BKN032 OVC048 04/04 A2930 RMK AO2 RAB13E39 SLP924 P0000 60000 T00390039 400441044 57003 TSNO $
PASN 170845Z AUTO 16004KT 10SM SCT008 BKN032 OVC043 04/04 A2930 RMK AO2 RAB13E39 P0000 T00390039 TSNO $
PASN 170834Z AUTO 17004KT 10SM -RA BKN007 BKN014 OVC041 04/04 A2930 RMK AO2 RAB13 P0000 T00440039 TSNO $
PASN 170753Z AUTO 16005KT 10SM FEW006 BKN014 OVC048 04/04 A2931 RMK AO2 SLP924 T00390039 TSNO $
PASN 170653Z AUTO 16006KT 10SM BKN006 OVC018 04/04 A2931 RMK AO2 CIG 005V010 SLP927 T00440044 TSNO $
PASN 170650Z AUTO 16006KT 10SM BKN006 BKN018 OVC030 04/04 A2931 RMK AO2 TSNO $
PASN 170627Z AUTO 16006KT 10SM FEW006 SCT018 BKN028 04/04 A2932 RMK AO2 T00390039 TSNO $
PASN 170607Z AUTO 15007KT 10SM SCT005 SCT015 BKN043 04/04 A2932 RMK AO2 T00390039 TSNO $
PASN 170553Z AUTO 14007KT 8SM BKN006 BKN012 OVC016 04/04 A2932 RMK SLP930 60005 T00440044 10044 20028 56015 TSNO $ VIA AUTODIAL
PASN 170511Z AUTO 12007KT 5SM BR BKN006 BKN013 OVC033 04/04 A2933 RMK AO2 T00440044 TSNO
PASN 170453Z AUTO 09005KT 9SM OVC037 04/04 A2933 RMK AO2 RAE32 SLP934 P0002 T00390039 TSNO
PASN 170409Z AUTO 08007KT 4SM -RA BR FEW006 OVC022 04/04 A2935 RMK AO2 P0001 T00390039 TSNO
PASN 170400Z AUTO 08008KT 4SM -RA BR FEW006 BKN014 OVC020 04/04 A2935 RMK AO2 P0001 T00390039 TSNO
PASN 170353Z AUTO 08009KT 4SM -RA BR FEW007 BKN016 OVC020 04/04 A2935 RMK AO2 RAE08B29 SLP939 P0002 T00390039 TSNO
PASN 170339Z AUTO 08009KT 3SM -RA BR FEW007 BKN014 OVC019 04/03 A2935 RMK AO2 RAE08B29 P0001 T00390033 TSNO
PASN 170314Z AUTO 08007KT 10SM FEW006 FEW011 OVC021 04/03 A2936 RMK AO2 RAE08 P0000 T00390033 TSNO
PASN 170253Z AUTO 10007KT 4SM -RA BR SCT007 BKN013 OVC018 04/03 A2937 RMK AO2 RAB04 SLP945 P0000 60001 T00390033 56023 TSNO
PASN 170231Z AUTO 10009KT 5SM -RA BR FEW008 BKN013 OVC026 04/03 A2937 RMK AO2 RAB04 P0000 T00390033 TSNO
PASN 170211Z AUTO 12008KT 7SM -RA BKN014 OVC026 04/03 A2938 RMK AO2 RAB04 P0000 T00390028 TSNO
PASN 170153Z AUTO 12007KT 9SM BKN018 OVC033 04/03 A2939 RMK AO2 SLP952 T00390028 TSNO
PASN 170053Z AUTO 15008KT 10SM SCT018 OVC037 03/02 A2941 RMK AO2 RAE32 SLP959 P0001 T00330022 TSNO
PASN 170028Z AUTO 15007KT 10SM -RA FEW014 BKN036 OVC044 03/02 A2942 RMK AO2 P0001 T00330022 TSNO
PASN 170002Z AUTO 15011KT 10SM -RA FEW017 SCT022 OVC028 03/02 A2943 RMK AO2 P0000 T00330017 TSNO
PASN 162353Z AUTO 16011KT 10SM -RA SCT020 OVC030 03/01 A2943 RMK AO2 RAB14 SLP967 P0001 60001 T00280011 10033 20006 58021 TSNO
PASN 162301Z AUTO 15011KT 10SM FEW013 BKN033 OVC065 03/02 A2945 RMK AO2 T00330022 TSNO
PASN 162253Z AUTO 15012KT 10SM FEW013 BKN028 OVC065 03/03 A2945 RMK AO2 WSHFT 2209 UPE03RAB03E13B41E49SNB40E41B49E50 SLP974 P0000 T00330028 TSNO
PASN 162246Z AUTO 15011KT 4SM -RA BR SCT015 BKN020 OVC035 03/02 A2946 RMK AO2 WSHFT 2209 UPE03RAB03E13B41SNB40E41 P0000 T00280022 TSNO
PASN 162223Z AUTO 13011KT 7SM FEW006 BKN013 OVC020 03/02 A2946 RMK AO2 WSHFT 2209 UPE03RAB03E13 P0000 T00280022 TSNO
PASN 162207Z AUTO 10010KT 3SM -RA BR BKN008 OVC011 03/03 A2947 RMK AO2 UPE03RAB03 P0000 T00280028 TSNO
PASN 162153Z AUTO 05011KT 1 1/2SM UP BR OVC008 02/02 A2948 RMK AO2 UPB27 SLP982 P0000 T00220022 TSNO
PASN 162130Z AUTO 04012KT 1 3/4SM UP BR OVC009 02/01 A2948 RMK AO2 UPB27 P0000 T00170011 TSNO
PASN 162108Z AUTO 04012KT 9SM OVC009 01/01 A2949 RMK AO2 T00110006 TSNO
PASN 162053Z AUTO 04013KT 7SM BKN011 OVC020 01/01 A2949 RMK AO2 SLP988 T00110006 56018 TSNO
PASN 162049Z AUTO 04012KT 9SM SCT009 BKN015 OVC020 01/01 A2950 RMK AO2 TSNO